createdAt,value
2018-12-04T00:01:08.497Z,4.73
2018-12-04T00:03:36.825Z,3.37
2018-12-04T00:06:05.197Z,6.03
2018-12-04T00:08:33.361Z,3.57
2018-12-04T00:11:01.656Z,3.30
2018-12-04T00:13:29.801Z,4.27
2018-12-04T00:15:57.953Z,3.53
2018-12-04T00:18:26.285Z,1.80
2018-12-04T00:20:54.556Z,4.67
2018-12-04T00:23:22.705Z,4.93
2018-12-04T00:25:50.905Z,4.13
2018-12-04T00:28:19.080Z,6.13
2018-12-04T00:30:47.258Z,4.03
2018-12-04T00:33:15.527Z,4.73
2018-12-04T00:35:43.712Z,6.27
2018-12-04T00:38:11.874Z,4.23
2018-12-04T00:40:40.062Z,3.73
2018-12-04T00:43:08.220Z,3.30
2018-12-04T00:45:36.524Z,4.97
2018-12-04T00:48:04.682Z,3.10
2018-12-04T00:50:32.908Z,5.37
2018-12-04T00:53:01.121Z,5.73
2018-12-04T00:55:39.565Z,6.53
2018-12-04T00:58:08.033Z,5.37
2018-12-04T01:00:36.275Z,3.77
2018-12-04T01:03:04.896Z,4.03
2018-12-04T01:05:33.283Z,5.57
2018-12-04T01:08:01.560Z,3.80
2018-12-04T01:10:29.696Z,3.47
2018-12-04T01:12:58.006Z,5.60
2018-12-04T01:15:26.437Z,4.13
2018-12-04T01:17:54.781Z,8.07
2018-12-04T01:20:22.929Z,4.10
2018-12-04T01:22:51.232Z,10.00
2018-12-04T01:25:19.485Z,8.13
2018-12-04T01:27:47.765Z,6.10
2018-12-04T01:30:16.060Z,7.27
2018-12-04T01:32:44.228Z,8.30
2018-12-04T01:35:12.608Z,6.83
2018-12-04T01:37:40.786Z,7.93
2018-12-04T01:40:09.162Z,4.97
2018-12-04T01:42:37.332Z,4.30
2018-12-04T01:45:06.533Z,8.40
2018-12-04T01:47:34.924Z,7.87
2018-12-04T01:50:03.349Z,7.97
2018-12-04T01:52:31.503Z,6.13
2018-12-04T01:54:59.646Z,6.63
2018-12-04T01:57:27.916Z,9.90
2018-12-04T01:59:56.181Z,5.37
2018-12-04T02:02:24.484Z,6.13
2018-12-04T02:04:52.632Z,4.97
2018-12-04T02:07:20.817Z,5.97
2018-12-04T02:09:48.956Z,6.23
2018-12-04T02:12:17.175Z,5.17
2018-12-04T02:14:45.314Z,7.63
2018-12-04T02:17:13.550Z,7.47
2018-12-04T02:19:41.689Z,5.40
2018-12-04T02:22:10.093Z,3.40
2018-12-04T02:24:38.236Z,6.20
2018-12-04T02:27:06.417Z,8.53
2018-12-04T02:29:34.608Z,6.00
2018-12-04T02:32:02.784Z,4.93
2018-12-04T02:34:31.169Z,5.43
2018-12-04T02:36:59.432Z,5.67
2018-12-04T02:39:27.684Z,3.97
2018-12-04T02:41:55.981Z,4.47
2018-12-04T02:44:24.133Z,6.97
2018-12-04T02:46:52.444Z,6.10
2018-12-04T02:49:20.621Z,4.53
2018-12-04T02:51:48.780Z,7.17
2018-12-04T02:54:16.961Z,4.33
2018-12-04T02:56:45.236Z,6.67
2018-12-04T02:59:13.412Z,4.73
2018-12-04T03:01:41.576Z,5.80
2018-12-04T03:04:09.729Z,3.67
2018-12-04T03:06:37.928Z,3.57
2018-12-04T03:09:07.933Z,3.53
2018-12-04T03:11:36.548Z,1.97
2018-12-04T03:14:04.942Z,5.03
2018-12-04T03:16:33.188Z,5.43
2018-12-04T03:19:01.378Z,7.17
2018-12-04T03:21:29.537Z,5.60
2018-12-04T03:23:57.703Z,4.90
2018-12-04T03:26:26.097Z,3.30
2018-12-04T03:28:54.257Z,3.57
2018-12-04T03:31:22.449Z,5.53
2018-12-04T03:33:50.657Z,6.10
2018-12-04T03:36:18.892Z,6.10
2018-12-04T03:38:47.081Z,3.53
2018-12-04T03:41:15.361Z,5.10
2018-12-04T03:43:43.562Z,7.17
2018-12-04T03:46:11.738Z,3.63
2018-12-04T03:48:39.888Z,6.07
2018-12-04T03:51:08.194Z,3.77
2018-12-04T03:53:36.338Z,10.43
2018-12-04T03:56:04.728Z,3.63
2018-12-04T03:58:33.090Z,6.73
2018-12-04T04:01:01.374Z,5.63
2018-12-04T04:03:29.640Z,5.57
2018-12-04T04:05:57.932Z,5.83
2018-12-04T04:08:26.114Z,6.50
2018-12-04T04:10:54.388Z,4.17
2018-12-04T04:13:22.672Z,4.60
2018-12-04T04:15:50.918Z,4.60
2018-12-04T04:18:19.214Z,3.70
2018-12-04T04:20:48.689Z,3.53
2018-12-04T04:23:17.189Z,3.60
2018-12-04T04:25:45.382Z,5.80
2018-12-04T04:28:13.641Z,4.70
2018-12-04T04:30:41.829Z,4.80
2018-12-04T04:33:10.105Z,3.37
2018-12-04T04:35:38.285Z,5.77
2018-12-04T04:38:06.458Z,5.40
2018-12-04T04:40:34.633Z,3.77
2018-12-04T04:43:02.792Z,5.23
2018-12-04T04:45:30.981Z,20.00
2018-12-04T04:47:59.244Z,3.57
2018-12-04T04:50:27.553Z,3.93
2018-12-04T04:52:55.797Z,4.63
2018-12-04T04:55:23.973Z,4.17
2018-12-04T04:57:52.167Z,3.33
2018-12-04T05:00:20.325Z,4.97
2018-12-04T05:02:48.935Z,5.20
2018-12-04T05:05:17.188Z,4.10
2018-12-04T05:07:45.593Z,4.60
2018-12-04T05:10:13.732Z,8.17
2018-12-04T05:12:41.892Z,4.47
2018-12-04T05:15:10.208Z,3.70
2018-12-04T05:17:38.614Z,7.57
2018-12-04T05:20:08.458Z,7.20
2018-12-04T05:22:37.069Z,15.33
2018-12-04T05:25:06.349Z,6.47
2018-12-04T05:27:34.670Z,5.43
2018-12-04T05:30:03.049Z,8.97
2018-12-04T05:32:31.321Z,13.37
2018-12-04T05:34:59.485Z,8.93
2018-12-04T05:37:27.629Z,5.60
2018-12-04T05:39:55.769Z,5.47
2018-12-04T05:42:23.924Z,4.47
2018-12-04T05:44:52.083Z,3.80
2018-12-04T05:47:20.265Z,3.83
2018-12-04T05:49:48.532Z,3.97
2018-12-04T05:52:16.720Z,3.20
2018-12-04T05:54:44.895Z,6.37
2018-12-04T05:57:13.172Z,4.53
2018-12-04T05:59:41.342Z,4.60
2018-12-04T06:02:09.569Z,4.37
2018-12-04T06:04:39.512Z,4.67
2018-12-04T06:07:07.681Z,2.57
2018-12-04T06:09:35.937Z,6.37
2018-12-04T06:12:04.397Z,4.57
2018-12-04T06:14:32.585Z,3.57
2018-12-04T06:17:00.892Z,3.43
2018-12-04T06:19:29.140Z,2.10
2018-12-04T06:21:57.285Z,3.23
2018-12-04T06:24:25.524Z,4.37
2018-12-04T06:26:53.824Z,2.10
2018-12-04T06:29:22.005Z,1.67
2018-12-04T06:31:50.276Z,3.03
2018-12-04T06:34:18.466Z,1.63
2018-12-04T06:36:46.622Z,2.77
2018-12-04T06:39:14.805Z,2.57
2018-12-04T06:41:43.013Z,2.73
2018-12-04T06:44:11.273Z,4.20
2018-12-04T06:46:39.644Z,2.87
2018-12-04T06:49:07.813Z,4.50
2018-12-04T06:51:35.965Z,2.77
2018-12-04T06:54:04.280Z,1.87
2018-12-04T06:56:32.428Z,3.77
2018-12-04T06:59:00.823Z,1.27
2018-12-04T07:01:29.042Z,2.90
2018-12-04T07:03:57.197Z,2.43
2018-12-04T07:06:25.360Z,1.93
2018-12-04T07:08:53.545Z,4.37
2018-12-04T07:11:21.710Z,3.87
2018-12-04T07:13:49.861Z,2.07
2018-12-04T07:16:18.085Z,3.63
2018-12-04T07:18:46.225Z,2.17
2018-12-04T07:21:14.517Z,3.17
2018-12-04T07:23:42.669Z,3.80
2018-12-04T07:26:10.841Z,1.80
2018-12-04T07:28:39.024Z,4.63
2018-12-04T07:31:07.196Z,6.17
2018-12-04T07:33:35.360Z,4.33
2018-12-04T07:36:03.764Z,3.80
2018-12-04T07:38:31.958Z,3.73
2018-12-04T07:41:00.321Z,4.43
2018-12-04T07:43:28.612Z,2.80
2018-12-04T07:45:56.858Z,3.57
2018-12-04T07:48:25.151Z,4.10
2018-12-04T07:50:53.422Z,2.30
2018-12-04T07:53:21.577Z,5.73
2018-12-04T07:55:49.768Z,3.97
2018-12-04T07:58:17.969Z,4.47
2018-12-04T08:00:46.324Z,3.73
2018-12-04T08:03:14.491Z,8.23
2018-12-04T08:05:42.664Z,3.37
2018-12-04T08:08:10.953Z,3.47
2018-12-04T08:10:39.113Z,8.43
2018-12-04T08:13:07.300Z,4.87
2018-12-04T08:15:35.457Z,4.13
2018-12-04T08:18:03.705Z,3.50
2018-12-04T08:20:32.044Z,6.93
2018-12-04T08:23:00.208Z,5.47
2018-12-04T08:25:28.365Z,7.33
2018-12-04T08:27:56.609Z,9.37
2018-12-04T08:30:24.765Z,7.83
2018-12-04T08:32:52.929Z,6.33
2018-12-04T08:35:21.234Z,6.90
2018-12-04T08:37:49.490Z,7.87
2018-12-04T08:40:17.625Z,6.13
2018-12-04T08:42:45.792Z,5.40
2018-12-04T08:45:13.941Z,6.23
2018-12-04T08:47:42.117Z,9.30
2018-12-04T08:50:10.322Z,4.37
2018-12-04T08:52:38.492Z,6.53
2018-12-04T08:55:07.101Z,9.10
2018-12-04T08:57:35.361Z,11.27
2018-12-04T09:00:04.885Z,5.63
2018-12-04T09:02:33.045Z,8.03
2018-12-04T09:05:01.221Z,5.97
2018-12-04T09:07:29.492Z,12.33
2018-12-04T09:09:57.676Z,7.83
2018-12-04T09:12:25.821Z,7.37
2018-12-04T09:14:53.980Z,8.80
2018-12-04T09:17:22.185Z,7.90
2018-12-04T09:19:50.418Z,7.83
2018-12-04T09:22:18.647Z,7.50
2018-12-04T09:24:46.843Z,7.33
2018-12-04T09:27:15.103Z,5.63
2018-12-04T09:29:43.384Z,6.47
2018-12-04T09:32:11.849Z,5.83
2018-12-04T09:34:40.038Z,5.43
2018-12-04T09:37:08.245Z,5.73
2018-12-04T09:39:36.402Z,4.97
2018-12-04T09:42:04.790Z,7.43
2018-12-04T09:44:32.949Z,6.20
2018-12-04T09:47:01.128Z,9.00
2018-12-04T09:49:29.333Z,6.90
2018-12-04T09:51:57.789Z,4.40
2018-12-04T09:54:25.941Z,7.70
2018-12-04T09:56:54.157Z,8.03
2018-12-04T09:59:22.296Z,5.90
2018-12-04T10:01:50.509Z,9.47
2018-12-04T10:04:18.738Z,8.83
2018-12-04T10:06:47.150Z,8.03
2018-12-04T10:09:15.289Z,6.03
2018-12-04T10:11:43.485Z,8.90
2018-12-04T10:14:11.744Z,8.17
2018-12-04T10:16:39.901Z,8.30
2018-12-04T10:19:08.206Z,8.73
2018-12-04T10:21:36.459Z,8.77
2018-12-04T10:24:04.861Z,9.03
2018-12-04T10:26:33.017Z,7.23
2018-12-04T10:29:01.210Z,8.57
2018-12-04T10:31:29.608Z,7.73
2018-12-04T10:33:57.761Z,5.43
2018-12-04T10:36:25.916Z,9.17
2018-12-04T10:38:54.064Z,11.63
2018-12-04T10:41:22.219Z,6.13
2018-12-04T10:43:50.368Z,13.07
2018-12-04T10:46:18.605Z,8.33
2018-12-04T10:48:46.854Z,7.40
2018-12-04T10:51:15.145Z,8.37
2018-12-04T10:53:43.386Z,9.83
2018-12-04T10:56:11.553Z,9.43
2018-12-04T10:58:39.697Z,7.10
2018-12-04T11:01:13.134Z,8.40
2018-12-04T11:03:41.508Z,10.30
2018-12-04T11:06:09.793Z,7.83
2018-12-04T11:08:37.949Z,6.87
2018-12-04T11:11:06.441Z,7.90
2018-12-04T11:13:34.655Z,6.63
2018-12-04T11:16:03.093Z,12.37
2018-12-04T11:18:31.477Z,11.03
2018-12-04T11:20:59.645Z,10.03
2018-12-04T11:23:27.825Z,11.23
2018-12-04T11:25:56.103Z,8.23
2018-12-04T11:28:24.268Z,8.23
2018-12-04T11:30:52.445Z,11.40
2018-12-04T11:33:20.734Z,12.33
2018-12-04T11:35:49.004Z,10.67
2018-12-04T11:38:17.300Z,7.10
2018-12-04T11:40:45.665Z,9.17
2018-12-04T11:43:13.816Z,8.83
2018-12-04T11:45:42.146Z,11.27
2018-12-04T11:48:10.504Z,4.73
2018-12-04T11:50:38.660Z,38.80
2018-12-04T11:53:06.834Z,7.70
2018-12-04T11:55:34.979Z,8.90
2018-12-04T11:58:03.301Z,7.53
2018-12-04T12:00:34.060Z,8.57
2018-12-04T12:03:02.709Z,15.17
2018-12-04T12:05:30.858Z,11.07
2018-12-04T12:07:59.013Z,9.87
2018-12-04T12:10:27.538Z,12.03
2018-12-04T12:12:55.693Z,11.60
2018-12-04T12:15:24.021Z,11.33
2018-12-04T12:17:52.276Z,16.00
2018-12-04T12:20:20.432Z,13.30
2018-12-04T12:22:48.645Z,11.43
2018-12-04T12:25:16.965Z,10.57
2018-12-04T12:27:45.341Z,16.37
2018-12-04T12:30:13.887Z,11.40
2018-12-04T12:32:42.129Z,8.80
2018-12-04T12:35:10.532Z,9.70
2018-12-04T12:37:38.905Z,11.37
2018-12-04T12:40:08.796Z,43.17
2018-12-04T12:42:37.311Z,13.03
2018-12-04T12:45:07.553Z,59.07
2018-12-04T12:47:35.905Z,72.30
2018-12-04T12:50:04.912Z,18.50
2018-12-04T12:52:33.058Z,9.17
2018-12-04T12:55:01.248Z,5.37
2018-12-04T12:57:29.497Z,11.90
2018-12-04T12:59:57.806Z,10.53
2018-12-04T13:02:26.113Z,13.30
2018-12-04T13:04:54.280Z,11.47
2018-12-04T13:07:22.526Z,10.97
2018-12-04T13:09:50.805Z,11.27
2018-12-04T13:12:19.092Z,10.27
2018-12-04T13:14:47.256Z,12.53
2018-12-04T13:17:15.554Z,13.90
2018-12-04T13:19:43.803Z,11.17
2018-12-04T13:22:11.958Z,12.87
2018-12-04T13:24:40.279Z,13.70
2018-12-04T13:27:08.580Z,9.10
2018-12-04T13:29:36.745Z,8.63
2018-12-04T13:32:05.025Z,8.27
2018-12-04T13:34:33.185Z,11.90
2018-12-04T13:37:01.551Z,9.30
2018-12-04T13:39:29.704Z,9.63
2018-12-04T13:41:58.012Z,9.87
2018-12-04T13:44:26.364Z,8.47
2018-12-04T13:46:54.567Z,14.47
2018-12-04T13:49:22.725Z,11.40
2018-12-04T13:51:51.189Z,11.50
2018-12-04T13:54:19.756Z,9.83
2018-12-04T13:56:48.180Z,16.23
2018-12-04T13:59:16.349Z,10.10
2018-12-04T14:01:44.641Z,10.13
2018-12-04T14:04:16.939Z,7.47
2018-12-04T14:06:43.041Z,10.20
2018-12-04T14:09:11.424Z,10.67
2018-12-04T14:11:41.066Z,11.77
2018-12-04T14:14:09.291Z,11.07
2018-12-04T14:16:37.469Z,10.73
2018-12-04T14:19:05.722Z,7.80
2018-12-04T14:21:33.971Z,8.67
2018-12-04T14:24:02.214Z,12.73
2018-12-04T14:26:30.511Z,7.27
2018-12-04T14:28:58.781Z,10.33
2018-12-04T14:31:27.150Z,9.10
2018-12-04T14:33:55.298Z,10.37
2018-12-04T14:36:23.732Z,10.50
2018-12-04T14:38:51.982Z,10.27
2018-12-04T14:41:20.277Z,14.90
2018-12-04T14:43:48.532Z,14.47
2018-12-04T14:46:16.892Z,11.33
2018-12-04T14:48:45.127Z,8.03
2018-12-04T14:51:13.484Z,9.90
2018-12-04T14:53:41.721Z,10.47
2018-12-04T14:56:09.971Z,12.83
2018-12-04T14:58:38.193Z,12.00
2018-12-04T15:01:06.482Z,7.90
2018-12-04T15:03:34.969Z,10.77
2018-12-04T15:06:03.471Z,13.93
2018-12-04T15:08:31.737Z,9.17
2018-12-04T15:10:59.992Z,14.70
2018-12-04T15:13:28.333Z,14.30
2018-12-04T15:15:56.629Z,9.43
2018-12-04T15:18:24.908Z,17.23
2018-12-04T15:20:53.219Z,15.90
2018-12-04T15:23:21.461Z,8.93
2018-12-04T15:25:49.697Z,10.00
2018-12-04T15:28:18.175Z,15.00
2018-12-04T15:30:46.521Z,13.97
2018-12-04T15:33:14.931Z,12.63
2018-12-04T15:35:43.157Z,16.00
2018-12-04T15:38:11.321Z,14.17
2018-12-04T15:40:39.488Z,11.80
2018-12-04T15:43:07.829Z,11.13
2018-12-04T15:45:36.173Z,13.17
2018-12-04T15:48:04.473Z,15.03
2018-12-04T15:50:32.653Z,13.97
2018-12-04T15:53:00.853Z,18.77
2018-12-04T15:55:29.178Z,12.33
2018-12-04T15:57:57.336Z,16.50
2018-12-04T16:00:25.554Z,23.17
2018-12-04T16:02:53.812Z,29.97
2018-12-04T16:05:21.974Z,26.93
2018-12-04T16:07:50.256Z,18.10
2018-12-04T16:10:18.625Z,22.00
2018-12-04T16:12:46.809Z,16.37
2018-12-04T16:15:15.056Z,18.57
2018-12-04T16:17:43.377Z,17.70
2018-12-04T16:20:11.525Z,18.60
2018-12-04T16:22:39.949Z,20.37
2018-12-04T16:25:09.124Z,23.37
2018-12-04T16:27:37.390Z,26.90
2018-12-04T16:30:07.830Z,21.37
2018-12-04T16:32:35.993Z,28.17
2018-12-04T16:35:05.576Z,19.23
2018-12-04T16:37:33.872Z,22.40
2018-12-04T16:40:02.174Z,21.10
2018-12-04T16:42:30.328Z,27.37
2018-12-04T16:44:58.551Z,24.70
2018-12-04T16:47:26.777Z,26.10
2018-12-04T16:49:54.964Z,31.33
2018-12-04T16:52:23.135Z,35.30
2018-12-04T16:54:51.325Z,26.93
2018-12-04T16:57:19.480Z,32.03
2018-12-04T16:59:47.669Z,24.50
2018-12-04T17:02:15.929Z,33.73
2018-12-04T17:04:44.328Z,39.37
2018-12-04T17:07:12.569Z,31.80
2018-12-04T17:09:40.819Z,36.17
2018-12-04T17:12:09.036Z,28.97
2018-12-04T17:14:37.229Z,44.60
2018-12-04T17:17:05.509Z,33.17
2018-12-04T17:19:34.612Z,43.70
2018-12-04T17:22:02.781Z,51.03
2018-12-04T17:24:30.961Z,52.10
2018-12-04T17:26:59.136Z,69.33
2018-12-04T17:29:27.401Z,123.97
2018-12-04T17:31:55.581Z,56.50
2018-12-04T17:34:23.765Z,68.80
2018-12-04T17:36:52.121Z,82.97
2018-12-04T17:39:20.289Z,59.23
2018-12-04T17:41:48.688Z,78.10
2018-12-04T17:44:16.950Z,57.83
2018-12-04T17:46:45.113Z,98.47
2018-12-04T17:49:13.620Z,71.20
2018-12-04T17:51:41.929Z,80.13
2018-12-04T17:54:10.092Z,82.30
2018-12-04T17:56:38.253Z,91.27
2018-12-04T17:59:06.481Z,86.33
2018-12-04T18:01:34.897Z,44.17
2018-12-04T18:04:03.296Z,71.37
2018-12-04T18:06:31.461Z,63.17
2018-12-04T18:08:59.629Z,40.07
2018-12-04T18:11:27.877Z,54.87
2018-12-04T18:13:56.076Z,70.87
2018-12-04T18:16:24.291Z,63.63
2018-12-04T18:18:52.437Z,27.43
2018-12-04T18:21:20.617Z,34.10
2018-12-04T18:23:48.987Z,31.93
2018-12-04T18:26:17.165Z,24.33
2018-12-04T18:28:45.341Z,51.70
2018-12-04T18:31:13.560Z,31.70
2018-12-04T18:33:41.788Z,31.63
2018-12-04T18:36:10.113Z,34.90
2018-12-04T18:38:38.552Z,45.07
2018-12-04T18:41:07.456Z,47.07
2018-12-04T18:43:35.686Z,45.07
2018-12-04T18:46:06.553Z,35.37
2018-12-04T18:48:34.836Z,84.53
2018-12-04T18:51:03.221Z,57.17
2018-12-04T18:53:31.521Z,58.83
2018-12-04T18:55:59.797Z,65.53
2018-12-04T18:58:28.056Z,62.80
2018-12-04T19:00:56.473Z,79.30
2018-12-04T19:03:24.717Z,60.83
2018-12-04T19:05:52.873Z,78.07
2018-12-04T19:08:25.236Z,66.00
2018-12-04T19:10:53.741Z,50.13
2018-12-04T19:13:21.905Z,36.90
2018-12-04T19:15:50.406Z,41.57
2018-12-04T19:18:18.569Z,46.23
2018-12-04T19:20:46.729Z,62.30
2018-12-04T19:23:14.924Z,44.87
2018-12-04T19:25:43.081Z,48.30
2018-12-04T19:28:11.324Z,56.23
2018-12-04T19:30:39.637Z,54.37
2018-12-04T19:33:08.857Z,62.30
2018-12-04T19:35:37.020Z,91.80
2018-12-04T19:38:05.204Z,56.50
2018-12-04T19:40:33.585Z,73.13
2018-12-04T19:43:01.736Z,58.40
2018-12-04T19:45:29.941Z,54.67
2018-12-04T19:47:58.113Z,46.93
2018-12-04T19:50:26.659Z,46.70
2018-12-04T19:52:54.931Z,33.07
2018-12-04T19:55:23.125Z,51.70
2018-12-04T19:57:51.493Z,24.87
2018-12-04T20:00:20.181Z,32.03
2018-12-04T20:02:48.381Z,32.93
2018-12-04T20:05:16.853Z,35.07
2018-12-04T20:07:45.080Z,25.70
2018-12-04T20:10:13.326Z,23.77
2018-12-04T20:12:41.730Z,30.07
2018-12-04T20:15:10.385Z,53.90
2018-12-04T20:17:38.769Z,53.13
2018-12-04T20:20:07.223Z,32.53
2018-12-04T20:22:35.488Z,35.93
2018-12-04T20:25:04.082Z,23.17
2018-12-04T20:27:32.320Z,46.03
2018-12-04T20:30:00.468Z,32.40
2018-12-04T20:32:28.621Z,47.10
2018-12-04T20:34:56.905Z,38.53
2018-12-04T20:37:25.560Z,73.50
2018-12-04T20:39:53.725Z,34.10
2018-12-04T20:42:23.437Z,37.03
2018-12-04T20:44:52.064Z,54.20
2018-12-04T20:47:20.942Z,41.93
2018-12-04T20:49:49.133Z,37.63
2018-12-04T20:52:17.560Z,40.40
2018-12-04T20:54:45.721Z,38.60
2018-12-04T20:57:14.857Z,33.30
2018-12-04T20:59:43.514Z,32.73
2018-12-04T21:02:12.157Z,45.63
2018-12-04T21:04:40.819Z,35.90
2018-12-04T21:07:09.295Z,26.90
2018-12-04T21:09:37.693Z,38.47
2018-12-04T21:12:06.088Z,34.37
2018-12-04T21:14:34.573Z,34.30
2018-12-04T21:17:02.724Z,32.10
2018-12-04T21:19:31.325Z,24.97
2018-12-04T21:21:59.584Z,23.73
2018-12-04T21:24:27.910Z,34.07
2018-12-04T21:26:56.053Z,34.90
2018-12-04T21:29:29.592Z,18.90
2018-12-04T21:32:03.253Z,21.50
2018-12-04T21:34:36.831Z,23.07
2018-12-04T21:37:10.494Z,21.80
2018-12-04T21:39:38.732Z,35.07
2018-12-04T21:42:12.501Z,33.43
2018-12-04T21:44:46.055Z,18.43
2018-12-04T21:47:19.705Z,16.03
2018-12-04T21:49:48.045Z,14.37
2018-12-04T21:52:16.221Z,20.97
2018-12-04T21:54:44.387Z,19.77
2018-12-04T21:57:12.641Z,19.60
2018-12-04T21:59:40.923Z,18.33
2018-12-04T22:02:09.157Z,14.37
2018-12-04T22:04:37.432Z,19.77
2018-12-04T22:07:05.671Z,14.50
2018-12-04T22:09:33.816Z,11.40
2018-12-04T22:12:02.021Z,15.47
2018-12-04T22:14:30.156Z,13.17
2018-12-04T22:16:58.361Z,14.40
2018-12-04T22:19:26.626Z,11.87
2018-12-04T22:21:55.032Z,11.13
2018-12-04T22:24:23.301Z,12.40
2018-12-04T22:26:51.469Z,15.03
2018-12-04T22:29:19.673Z,16.30
2018-12-04T22:31:47.829Z,21.93
2018-12-04T22:34:15.973Z,15.27
2018-12-04T22:36:44.169Z,13.90
2018-12-04T22:39:12.334Z,14.90
2018-12-04T22:41:40.516Z,21.37
2018-12-04T22:44:08.708Z,16.10
2018-12-04T22:46:36.960Z,24.87
2018-12-04T22:49:05.144Z,17.20
2018-12-04T22:51:33.305Z,14.90
2018-12-04T22:54:01.536Z,11.70
2018-12-04T22:56:29.934Z,11.73
2018-12-04T22:58:58.244Z,13.13
2018-12-04T23:01:37.172Z,15.50
2018-12-04T23:04:05.973Z,11.63
2018-12-04T23:06:34.254Z,17.77
2018-12-04T23:09:04.417Z,11.37
2018-12-04T23:11:32.556Z,13.20
2018-12-04T23:14:00.724Z,15.67
2018-12-04T23:16:28.888Z,13.10
2018-12-04T23:18:57.073Z,13.27
2018-12-04T23:21:25.337Z,11.07
2018-12-04T23:23:53.632Z,13.83
2018-12-04T23:26:21.804Z,14.27
2018-12-04T23:28:50.471Z,19.03
2018-12-04T23:31:18.656Z,12.63
2018-12-04T23:33:46.844Z,12.30
2018-12-04T23:36:15.009Z,12.77
2018-12-04T23:38:43.306Z,11.73
2018-12-04T23:41:11.452Z,13.60
2018-12-04T23:43:39.649Z,18.93
2018-12-04T23:46:07.801Z,20.83
2018-12-04T23:48:36.110Z,27.10
2018-12-04T23:51:04.477Z,21.30
2018-12-04T23:53:32.661Z,16.50
2018-12-04T23:56:00.956Z,17.73
2018-12-04T23:58:29.260Z,17.03
